Time;durP1;ratioP1;P1;durP2;ratioP2;P2;SDS_P1;SDS_P2;PMS_P1;PMS_P2;Temp;Humidity;BMP_temperature;BMP_pressure;BME280_temperature;BME280_humidity;BME280_pressure;Samples;Min_cycle;Max_cycle;Signal;HPM_P1;HPM_P2
2021/09/10 00:02:42;;;;;;;15.88;14.32;;;;;;;22.52;54.50;100978.56;6278685;28;20954;-48
2021/09/10 00:06:03;;;;;;;13.90;12.73;;;;;;;22.50;54.26;100970.69;6288541;28;20231;-49
2021/09/10 00:09:25;;;;;;;15.48;14.25;;;;;;;22.71;53.39;100971.25;6279145;28;20231;-47
2021/09/10 00:12:46;;;;;;;17.40;15.90;;;;;;;22.45;54.43;100966.56;6278313;28;20262;-50
2021/09/10 00:16:07;;;;;;;13.90;12.77;;;;;;;22.60;53.49;100958.63;6287629;28;20231;-47
2021/09/10 00:19:28;;;;;;;14.57;13.18;;;;;;;22.52;54.11;100967.94;6271424;28;20226;-47
2021/09/10 00:22:49;;;;;;;14.57;13.18;;;;;;;22.04;55.32;100975.84;6276480;28;20231;-47
2021/09/10 00:26:11;;;;;;;14.48;13.23;;;;;;;22.00;55.32;100974.31;6288124;28;20620;-48
2021/09/10 00:29:32;;;;;;;14.52;13.20;;;;;;;21.94;55.51;100972.84;6278941;28;20247;-45
2021/09/10 00:32:53;;;;;;;13.70;12.45;;;;;;;22.33;54.47;100963.69;6263023;28;20227;-48
2021/09/10 00:36:15;;;;;;;13.95;12.48;;;;;;;22.35;54.53;100966.25;6276950;28;20223;-51
2021/09/10 00:39:35;;;;;;;16.17;14.50;;;;;;;22.23;54.77;100968.59;6280851;28;20231;-49
2021/09/10 00:42:57;;;;;;;16.38;14.98;;;;;;;22.03;55.69;100976.81;6275832;28;20231;-52
2021/09/10 00:46:19;;;;;;;14.82;13.63;;;;;;;21.95;56.03;100973.72;6287938;28;20605;-49
2021/09/10 00:49:41;;;;;;;15.70;14.40;;;;;;;21.48;57.48;100974.44;6279221;28;20612;-51
2021/09/10 00:53:02;;;;;;;15.30;13.93;;;;;;;21.09;58.70;100978.16;6286684;28;20227;-53
2021/09/10 00:56:23;;;;;;;14.77;13.40;;;;;;;21.64;57.45;100967.41;6289845;28;20227;-48
2021/09/10 00:59:46;;;;;;;16.20;14.80;;;;;;;21.86;57.02;100975.06;6285971;28;20510;-51
2021/09/10 01:03:07;;;;;;;15.65;13.95;;;;;;;21.92;56.86;100971.22;6288622;28;20227;-48
2021/09/10 01:06:30;;;;;;;15.38;14.18;;;;;;;21.89;57.15;100966.09;6286286;28;20507;-50
2021/09/10 01:09:51;;;;;;;16.35;14.57;;;;;;;22.27;55.95;100960.50;6287182;28;20215;-50
2021/09/10 01:13:13;;;;;;;16.83;15.32;;;;;;;22.35;55.77;100966.25;6287433;28;20235;-45
2021/09/10 01:16:35;;;;;;;15.77;14.38;;;;;;;22.41;55.47;100966.75;6288205;28;20664;-49
2021/09/10 01:19:56;;;;;;;15.30;13.95;;;;;;;22.08;56.82;100966.81;6279488;28;20621;-50
2021/09/10 01:23:18;;;;;;;14.82;12.98;;;;;;;22.30;56.30;100961.19;6288610;28;20231;-46
2021/09/10 01:26:40;;;;;;;14.85;13.55;;;;;;;21.80;57.66;100973.59;6285819;28;20227;-48
2021/09/10 01:30:01;;;;;;;16.02;14.63;;;;;;;21.58;58.46;100978.34;6273983;28;20223;-47
2021/09/10 01:33:22;;;;;;;15.90;14.65;;;;;;;21.82;57.62;100974.38;6285825;28;20215;-49
2021/09/10 01:36:43;;;;;;;15.38;14.18;;;;;;;21.80;57.90;100976.25;6284356;28;20227;-51
2021/09/10 01:40:06;;;;;;;16.90;15.23;;;;;;;21.93;57.46;100970.31;6286917;28;20223;-50
2021/09/10 01:43:28;;;;;;;16.10;14.70;;;;;;;22.02;57.56;100975.09;6287148;28;20597;-48
2021/09/10 01:46:49;;;;;;;17.45;15.82;;;;;;;21.66;58.34;100981.44;6284960;28;20600;-48
2021/09/10 01:50:12;;;;;;;17.35;15.60;;;;;;;21.98;57.45;100969.13;6287407;28;20226;-46
2021/09/10 01:53:33;;;;;;;14.85;13.65;;;;;;;21.99;57.20;100968.16;6286946;28;20235;-47
2021/09/10 01:56:54;;;;;;;15.18;13.70;;;;;;;21.79;58.01;100977.19;6285669;28;20231;-46
2021/09/10 02:00:18;;;;;;;15.68;14.13;;;;;;;21.96;57.56;100975.41;6273492;28;20226;-47
2021/09/10 02:03:38;;;;;;;15.45;14.15;;;;;;;21.95;57.57;100973.72;6285207;28;20310;-50
2021/09/10 02:06:59;;;;;;;16.00;14.43;;;;;;;21.95;57.57;100990.47;6287345;28;20255;-52
2021/09/10 02:10:20;;;;;;;15.20;13.70;;;;;;;21.88;57.96;100985.59;6285582;28;20226;-48
2021/09/10 02:13:41;;;;;;;17.45;15.45;;;;;;;21.36;59.89;100991.78;6287817;28;20648;-51
2021/09/10 02:17:05;;;;;;;16.13;14.27;;;;;;;21.47;59.61;101001.88;6286743;28;20326;-46
2021/09/10 02:20:26;;;;;;;17.23;15.32;;;;;;;21.13;60.85;100993.84;6284303;28;20223;-44
2021/09/10 02:23:47;;;;;;;18.27;16.55;;;;;;;21.73;58.67;100996.09;6286100;28;20231;-49
2021/09/10 02:27:07;;;;;;;16.90;15.40;;;;;;;21.57;59.75;101000.47;6287907;28;20964;-50
2021/09/10 02:30:28;;;;;;;17.42;15.82;;;;;;;21.37;60.17;100997.03;6263950;28;20227;-47
2021/09/10 02:33:50;;;;;;;17.77;16.05;;;;;;;21.31;60.72;100989.41;6260436;28;20226;-53
2021/09/10 02:37:12;;;;;;;17.77;16.30;;;;;;;21.06;61.67;100999.53;6284319;28;20230;-48
2021/09/10 02:40:33;;;;;;;17.50;15.77;;;;;;;21.10;61.86;101003.72;6255427;28;20251;-47
2021/09/10 02:43:54;;;;;;;17.88;16.38;;;;;;;20.91;62.46;101017.88;6268590;28;20725;-51
2021/09/10 02:47:15;;;;;;;18.38;16.88;;;;;;;20.98;62.42;101014.00;6283471;28;20750;-48
2021/09/10 02:50:37;;;;;;;17.85;16.02;;;;;;;21.29;61.64;101017.75;6257285;28;20223;-47
2021/09/10 02:53:58;;;;;;;20.17;18.17;;;;;;;20.84;62.95;101021.78;6277825;28;20515;-46
2021/09/10 02:57:21;;;;;;;18.23;16.42;;;;;;;20.75;63.65;101027.50;6289239;28;20780;-48
2021/09/10 03:00:42;;;;;;;17.20;15.57;;;;;;;21.13;62.43;101022.09;6290465;28;20238;-50
2021/09/10 03:04:03;;;;;;;19.85;18.25;;;;;;;21.41;61.45;101016.28;6282592;28;20238;-46
2021/09/10 03:07:26;;;;;;;17.55;16.05;;;;;;;21.10;62.92;101011.66;6289040;28;20657;-49
2021/09/10 03:10:47;;;;;;;31.67;28.77;;;;;;;21.34;62.09;101010.41;6289408;28;20230;-46
2021/09/10 03:14:08;;;;;;;35.25;32.28;;;;;;;21.53;61.44;101010.38;6278259;28;20546;-46
2021/09/10 03:17:29;;;;;;;20.02;18.33;;;;;;;21.49;61.71;101002.66;6291614;28;20262;-47
2021/09/10 03:20:50;;;;;;;18.67;16.88;;;;;;;21.61;61.16;101002.00;6287159;28;20223;-49
2021/09/10 03:24:12;;;;;;;18.52;16.83;;;;;;;21.27;62.28;101002.84;6280955;28;20235;-48
2021/09/10 03:27:35;;;;;;;17.67;16.17;;;;;;;21.37;62.32;101015.56;6289767;28;20617;-47
2021/09/10 03:30:56;;;;;;;18.25;16.75;;;;;;;21.71;61.24;101013.84;6282220;28;20251;-48
2021/09/10 03:34:17;;;;;;;17.63;15.85;;;;;;;21.77;61.12;101013.53;6277536;28;20242;-47
2021/09/10 03:37:38;;;;;;;16.25;14.75;;;;;;;21.54;61.84;101008.56;6280670;28;20235;-48
2021/09/10 03:41:00;;;;;;;17.50;15.90;;;;;;;21.34;62.99;101004.25;6273290;28;20554;-44
2021/09/10 03:44:21;;;;;;;17.70;16.20;;;;;;;21.23;63.21;100999.53;6278985;28;20226;-46
2021/09/10 03:47:42;;;;;;;20.77;18.98;;;;;;;21.52;63.39;101008.66;6279919;28;21956;-45
2021/09/10 03:51:04;;;;;;;23.75;21.45;;;;;;;21.76;63.44;101005.66;6287853;28;20238;-51
2021/09/10 03:54:25;;;;;;;23.42;21.40;;;;;;;21.61;64.26;101002.00;6282001;28;20227;-47
2021/09/10 03:57:47;;;;;;;24.83;22.50;;;;;;;21.38;65.85;101006.69;6270345;28;20231;-45
2021/09/10 04:01:10;;;;;;;30.80;27.85;;;;;;;21.36;66.76;100997.94;6287342;28;20227;-48
2021/09/10 04:04:31;;;;;;;29.50;26.80;;;;;;;21.68;65.31;101000.75;6279581;28;20223;-48
2021/09/10 04:07:52;;;;;;;28.63;26.08;;;;;;;21.86;64.91;100990.97;6282902;28;20231;-50
2021/09/10 04:11:13;;;;;;;29.02;26.25;;;;;;;21.76;65.19;100989.75;6272855;28;20698;-47
2021/09/10 04:14:35;;;;;;;29.63;26.67;;;;;;;21.71;65.77;100992.63;6279491;28;20239;-51
2021/09/10 04:17:56;;;;;;;27.65;25.25;;;;;;;21.56;66.13;100998.78;6279276;28;20230;-48
2021/09/10 04:21:17;;;;;;;28.60;25.90;;;;;;;21.93;65.05;100988.88;6285276;28;20231;-52
2021/09/10 04:24:38;;;;;;;30.23;25.67;;;;;;;21.95;64.97;101005.53;6275229;28;20234;-49
2021/09/10 04:28:00;;;;;;;29.23;26.55;;;;;;;21.87;65.12;100999.78;6278076;28;20515;-48
2021/09/10 04:31:22;;;;;;;28.83;26.30;;;;;;;22.03;64.74;101000.69;6285798;28;20227;-48
2021/09/10 04:34:43;;;;;;;29.35;26.23;;;;;;;21.86;65.08;100995.44;6278679;28;20223;-48
2021/09/10 04:38:04;;;;;;;29.25;26.58;;;;;;;21.81;64.86;100999.19;6276716;28;20235;-47
2021/09/10 04:41:25;;;;;;;27.02;24.73;;;;;;;21.81;64.81;101007.13;6278037;28;20227;-48
2021/09/10 04:44:46;;;;;;;29.48;26.77;;;;;;;21.80;65.13;101007.22;6278237;28;20235;-46
2021/09/10 04:48:08;;;;;;;28.00;25.23;;;;;;;21.92;64.90;101005.69;6271717;28;20227;-51
2021/09/10 04:51:29;;;;;;;28.63;26.02;;;;;;;21.68;65.37;101003.41;6285957;28;20223;-52
2021/09/10 04:54:50;;;;;;;31.90;28.08;;;;;;;21.46;67.73;100987.78;6275514;28;20214;-49
2021/09/10 04:58:11;;;;;;;32.58;29.65;;;;;;;21.41;69.20;100987.13;6275910;28;20228;-50
2021/09/10 05:01:32;;;;;;;34.50;31.23;;;;;;;21.23;71.03;100995.09;6288101;28;20231;-51
2021/09/10 05:04:54;;;;;;;33.42;30.00;;;;;;;21.12;72.36;101009.81;6275323;28;20226;-49
2021/09/10 05:08:15;;;;;;;34.13;30.75;;;;;;;20.89;73.58;101030.31;6279202;28;20691;-48
2021/09/10 05:11:36;;;;;;;35.83;32.45;;;;;;;20.91;73.62;101036.41;6280919;28;20542;-50
2021/09/10 05:14:57;;;;;;;32.65;29.25;;;;;;;21.19;72.12;101050.91;6267426;28;20227;-47
2021/09/10 05:18:18;;;;;;;35.28;32.15;;;;;;;21.23;71.80;101056.00;6270153;28;20223;-48
2021/09/10 05:21:40;;;;;;;34.15;30.95;;;;;;;21.41;71.15;101051.56;6278921;28;20235;-48
2021/09/10 05:25:01;;;;;;;33.35;30.10;;;;;;;21.45;71.22;101054.09;6269817;28;20219;-47
2021/09/10 05:28:22;;;;;;;36.88;33.58;;;;;;;21.42;71.57;101055.06;6269102;28;20338;-49
2021/09/10 05:31:43;;;;;;;34.90;31.50;;;;;;;21.29;72.29;101062.78;6274461;28;20228;-51
2021/09/10 05:35:05;;;;;;;35.45;32.05;;;;;;;21.62;70.94;101060.25;6266612;28;20227;-47
2021/09/10 05:38:27;;;;;;;37.00;33.30;;;;;;;21.72;70.38;101059.78;6260778;28;20231;-46
2021/09/10 05:41:48;;;;;;;44.92;40.22;;;;;;;21.83;70.66;101054.78;6276985;28;20231;-46
2021/09/10 05:45:10;;;;;;;37.15;33.55;;;;;;;21.96;70.08;101060.25;6268083;28;20211;-52
2021/09/10 05:48:31;;;;;;;38.20;34.80;;;;;;;21.92;70.24;101064.03;6270540;28;20608;-51
2021/09/10 05:51:52;;;;;;;41.47;37.53;;;;;;;21.94;70.04;101068.28;6284674;28;20498;-50
2021/09/10 05:55:14;;;;;;;39.47;35.63;;;;;;;21.94;70.09;101073.59;6267297;28;20227;-50
2021/09/10 05:58:35;;;;;;;34.35;30.73;;;;;;;21.83;70.96;101070.69;6277992;28;20828;-52
2021/09/10 06:01:56;;;;;;;36.53;32.97;;;;;;;21.78;71.26;101070.06;6283599;28;20275;-49
2021/09/10 06:05:17;;;;;;;37.08;33.50;;;;;;;21.71;71.49;101061.53;6271766;28;20235;-51
2021/09/10 06:08:38;;;;;;;46.42;41.47;;;;;;;20.70;76.52;101101.78;6272673;28;20230;-59
2021/09/10 06:12:00;;;;;;;45.13;40.50;;;;;;;20.76;77.14;101108.59;6281276;28;20622;-58
2021/09/10 06:15:22;;;;;;;42.25;37.60;;;;;;;20.91;76.11;101102.56;6269117;28;20499;-51
2021/09/10 06:18:42;;;;;;;41.53;37.45;;;;;;;20.64;76.36;101118.81;6266298;28;20258;-49
2021/09/10 06:22:04;;;;;;;39.53;35.70;;;;;;;20.73;77.01;101120.19;6280949;28;20231;-47
2021/09/10 06:25:25;;;;;;;44.67;39.92;;;;;;;20.61;77.70;101126.91;6268684;28;20223;-51
2021/09/10 06:28:47;;;;;;;45.35;40.78;;;;;;;20.18;79.34;101126.19;6269007;28;20620;-48
2021/09/10 06:32:09;;;;;;;45.47;40.70;;;;;;;20.38;77.48;101140.31;6286904;28;20231;-47
2021/09/10 06:35:29;;;;;;;43.22;38.95;;;;;;;20.33;78.24;101148.41;6267568;28;20215;-50
2021/09/10 06:38:50;;;;;;;41.65;37.47;;;;;;;19.66;80.61;101154.81;6270431;28;20227;-51
2021/09/10 06:42:11;;;;;;;42.92;38.83;;;;;;;19.88;80.31;101168.00;6276173;28;20529;-54
2021/09/10 06:45:34;;;;;;;41.85;37.25;;;;;;;19.67;82.85;101172.38;6269383;28;20223;-54
2021/09/10 06:48:56;;;;;;;41.80;37.60;;;;;;;20.26;80.31;101170.78;6267843;28;20310;-49
2021/09/10 06:52:16;;;;;;;41.70;37.72;;;;;;;20.75;78.47;101159.81;6277693;28;20223;-47
2021/09/10 06:55:37;;;;;;;41.75;37.58;;;;;;;21.04;77.07;101146.06;6271379;28;20608;-52
2021/09/10 06:58:59;;;;;;;35.08;31.73;;;;;;;21.01;76.43;101143.59;6270138;28;20311;-51
2021/09/10 07:02:21;;;;;;;35.05;31.45;;;;;;;21.21;75.25;101141.75;6280015;28;20227;-46
2021/09/10 07:05:42;;;;;;;33.13;29.98;;;;;;;21.21;75.30;101155.00;6257279;28;20722;-49
2021/09/10 07:09:04;;;;;;;36.17;32.65;;;;;;;21.23;75.46;101166.38;6273180;28;20630;-52
2021/09/10 07:12:25;;;;;;;38.60;34.90;;;;;;;21.30;75.13;101167.78;6279850;28;20621;-48
2021/09/10 07:15:46;;;;;;;37.58;33.95;;;;;;;21.19;75.92;101175.38;6278940;28;20231;-51
2021/09/10 07:19:08;;;;;;;34.70;31.48;;;;;;;21.35;74.99;101175.53;6265131;28;20231;-49
2021/09/10 07:22:29;;;;;;;35.08;31.83;;;;;;;21.25;75.45;101175.09;6281238;28;20227;-50
2021/09/10 07:25:50;;;;;;;38.38;34.45;;;;;;;21.46;74.69;101177.66;6284002;28;20609;-48
2021/09/10 07:29:11;;;;;;;36.75;33.28;;;;;;;21.40;74.52;101179.66;6261973;28;20228;-47
2021/09/10 07:32:32;;;;;;;36.17;32.80;;;;;;;20.80;76.75;101185.16;6263336;28;20228;-50
2021/09/10 07:35:54;;;;;;;37.50;33.55;;;;;;;20.25;80.05;101188.41;6277823;28;20301;-51
2021/09/10 07:39:16;;;;;;;39.08;35.10;;;;;;;20.96;76.25;101201.16;6271653;28;20231;-46
2021/09/10 07:42:37;;;;;;;36.28;32.63;;;;;;;21.03;76.30;101197.31;6290948;28;20310;-46
2021/09/10 07:45:58;;;;;;;35.22;31.92;;;;;;;21.03;75.63;101207.91;6286580;28;20234;-49
2021/09/10 07:49:20;;;;;;;36.72;33.28;;;;;;;21.30;75.16;101214.59;6286327;28;20231;-47
2021/09/10 07:52:42;;;;;;;38.20;34.60;;;;;;;21.52;73.99;101217.09;6288602;28;20227;-50
2021/09/10 07:56:04;;;;;;;35.90;32.40;;;;;;;21.51;73.65;101220.69;6292162;28;20227;-47
2021/09/10 07:59:24;;;;;;;38.97;35.22;;;;;;;21.55;74.30;101215.16;6289245;28;20612;-48
2021/09/10 08:02:45;;;;;;;37.97;34.00;;;;;;;21.64;73.71;101213.88;6270403;28;20235;-47
2021/09/10 08:06:06;;;;;;;38.92;35.30;;;;;;;21.74;74.50;101219.56;6291381;28;20626;-51
2021/09/10 08:09:29;;;;;;;36.03;32.40;;;;;;;21.74;72.78;101220.44;6286493;28;20227;-46
2021/09/10 08:12:50;;;;;;;35.10;31.50;;;;;;;21.72;73.69;101214.34;6282060;28;20616;-49
2021/09/10 08:16:11;;;;;;;36.38;32.20;;;;;;;21.99;72.18;101217.41;6271089;28;20326;-46
2021/09/10 08:19:32;;;;;;;31.08;28.00;;;;;;;22.01;71.70;101228.78;6274674;28;20310;-59
2021/09/10 08:22:53;;;;;;;30.98;28.00;;;;;;;21.59;73.06;101231.78;6275008;28;20239;-59
2021/09/10 08:26:15;;;;;;;32.10;29.15;;;;;;;21.24;74.35;101247.53;6276377;28;20227;-57
2021/09/10 08:29:36;;;;;;;35.58;32.10;;;;;;;21.19;75.32;101260.13;6273773;28;20605;-58
2021/09/10 08:32:57;;;;;;;26.73;24.10;;;;;;;21.57;73.97;101265.44;6272850;28;20670;-52
2021/09/10 08:36:18;;;;;;;30.73;27.90;;;;;;;20.79;75.64;101260.16;6272835;28;20242;-58
2021/09/10 08:39:39;;;;;;;25.13;22.80;;;;;;;21.37;74.08;101275.16;6274424;28;20255;-55
2021/09/10 08:43:03;;;;;;;27.10;24.52;;;;;;;21.35;73.62;101284.13;6280179;28;20235;-56
2021/09/10 08:46:24;;;;;;;29.50;26.67;;;;;;;21.09;74.30;101290.63;6287811;28;20246;-56
2021/09/10 08:49:45;;;;;;;30.52;27.52;;;;;;;20.96;75.43;101296.47;6280103;28;20226;-57
2021/09/10 08:53:06;;;;;;;26.00;23.35;;;;;;;21.68;72.46;101292.28;6275130;28;20243;-59
2021/09/10 08:56:27;;;;;;;24.98;22.65;;;;;;;21.95;71.64;101276.84;6283054;28;20558;-55
2021/09/10 09:00:03;;;;;;;18.15;16.13;;;;;;;22.02;68.88;101277.38;6275986;28;20231;-58
2021/09/10 09:03:28;;;;;;;19.52;17.73;;;;;;;21.99;69.41;101258.97;6275731;28;20729;-57
2021/09/10 09:06:51;;;;;;;12.07;11.10;;;;;;;21.45;71.69;101271.34;6274502;28;20491;-55
2021/09/10 09:10:12;;;;;;;14.18;12.75;;;;;;;21.38;72.07;101258.34;6265804;28;20251;-57
2021/09/10 09:13:35;;;;;;;13.70;12.23;;;;;;;21.39;71.84;101248.63;6267180;28;20223;-57
2021/09/10 09:17:16;;;;;;;13.60;12.48;;;;;;;21.55;72.05;101236.38;6277892;28;20230;-57
2021/09/10 09:20:38;;;;;;;11.57;10.38;;;;;;;21.89;70.96;101241.78;6263054;28;20235;-56
2021/09/10 09:24:17;;;;;;;14.05;12.82;;;;;;;21.66;71.44;101233.22;6267214;28;20223;-58
2021/09/10 09:27:38;;;;;;;13.45;11.25;;;;;;;21.65;71.73;101225.31;6278501;28;20223;-57
2021/09/10 09:31:01;;;;;;;11.45;10.52;;;;;;;21.46;72.55;101220.06;6276087;28;20352;-58
2021/09/10 09:34:45;;;;;;;11.65;10.50;;;;;;;21.25;72.91;101220.13;6241309;28;20322;-59
2021/09/10 09:38:15;;;;;;;11.35;10.25;;;;;;;21.52;72.14;101219.75;6276374;28;20231;-57
2021/09/10 09:41:43;;;;;;;13.95;12.57;;;;;;;21.53;71.79;101218.84;6289816;28;22545;-58
2021/09/10 09:45:12;;;;;;;10.95;9.95;;;;;;;21.54;72.09;101209.94;6278275;28;20306;-57
2021/09/10 09:48:36;;;;;;;10.43;9.43;;;;;;;21.27;73.05;101212.09;6277379;28;20297;-58
2021/09/10 09:52:00;;;;;;;10.52;9.32;;;;;;;21.62;71.29;101199.84;6283187;28;20326;-58
2021/09/10 09:55:21;;;;;;;14.40;12.98;;;;;;;21.07;72.58;101210.38;6269180;28;20231;-58
2021/09/10 09:58:43;;;;;;;12.48;11.32;;;;;;;20.74;74.82;101221.59;6266638;28;20829;-57
2021/09/10 10:02:03;;;;;;;15.43;13.93;;;;;;;20.89;74.46;101234.13;6287365;28;20234;-58
2021/09/10 10:05:25;;;;;;;13.98;12.68;;;;;;;20.92;74.22;101236.66;6261304;28;20234;-58
2021/09/10 10:08:53;;;;;;;13.57;12.18;;;;;;;21.47;72.80;101237.69;6269526;28;20227;-57
2021/09/10 10:12:18;;;;;;;13.27;11.65;;;;;;;21.50;72.63;101226.91;6275034;28;20235;-53
2021/09/10 10:15:45;;;;;;;12.88;11.68;;;;;;;21.30;72.68;101239.28;6271485;28;20239;-57
2021/09/10 10:19:08;;;;;;;15.13;13.65;;;;;;;20.66;75.21;101253.69;6267309;28;20314;-55
2021/09/10 10:22:34;;;;;;;12.40;11.18;;;;;;;21.28;73.26;101256.19;6274403;28;20240;-57
2021/09/10 10:26:08;;;;;;;10.68;9.70;;;;;;;21.94;69.63;101245.09;6286619;28;20226;-55
2021/09/10 10:29:37;;;;;;;13.45;11.75;;;;;;;21.54;71.08;101249.69;6274795;28;20591;-57
2021/09/10 10:32:58;;;;;;;12.65;10.95;;;;;;;21.57;72.06;101257.50;6269467;28;20237;-55
2021/09/10 10:36:35;;;;;;;10.52;9.57;;;;;;;22.08;69.97;101245.28;6279478;28;20319;-55
2021/09/10 10:40:27;;;;;;;11.07;10.05;;;;;;;22.68;67.98;101238.66;6263697;28;20231;-58
2021/09/10 10:43:50;;;;;;;11.93;10.88;;;;;;;22.63;68.06;101240.72;6268245;28;20255;-55
2021/09/10 10:47:12;;;;;;;11.63;9.98;;;;;;;22.57;67.91;101240.09;6285890;28;20253;-57
2021/09/10 10:50:34;;;;;;;10.63;9.63;;;;;;;22.52;67.62;101233.31;6268341;28;20321;-60
2021/09/10 10:54:11;;;;;;;9.85;8.85;;;;;;;22.45;67.69;101232.78;6273609;28;20223;-60
2021/09/10 10:57:35;;;;;;;10.68;9.80;;;;;;;22.45;68.25;101226.59;6287029;28;20696;-59
2021/09/10 11:01:01;;;;;;;10.88;9.63;;;;;;;22.43;68.25;101229.38;6276577;28;20321;-60
2021/09/10 11:04:25;;;;;;;9.15;8.45;;;;;;;22.64;67.37;101224.69;6269985;28;20219;-60
2021/09/10 11:07:47;;;;;;;11.25;10.27;;;;;;;22.37;68.33;101234.97;6270097;28;20266;-51
2021/09/10 11:11:09;;;;;;;7.15;6.00;;;;;;;22.39;68.85;101233.09;6281978;28;20227;-50
2021/09/10 11:14:31;;;;;;;10.50;9.50;;;;;;;22.81;67.35;101234.41;6279200;28;20223;-50
2021/09/10 11:17:55;;;;;;;10.88;9.77;;;;;;;22.78;66.66;101234.59;6271584;28;20223;-49
2021/09/10 11:21:16;;;;;;;10.82;9.82;;;;;;;22.78;66.50;101229.28;6289060;28;20628;-49
2021/09/10 11:24:37;;;;;;;12.50;11.30;;;;;;;22.55;66.56;101239.31;6274900;28;20912;-47
2021/09/10 11:27:58;;;;;;;16.20;14.65;;;;;;;22.20;68.53;101247.28;6277964;28;20239;-48
2021/09/10 11:31:25;;;;;;;16.15;14.52;;;;;;;23.14;66.05;101241.53;6287295;28;20227;-49
2021/09/10 11:34:47;;;;;;;21.50;19.48;;;;;;;22.50;67.49;101246.66;6273641;28;20330;-50
2021/09/10 11:38:10;;;;;;;20.02;18.17;;;;;;;22.05;70.34;101245.41;6272355;28;20235;-50
2021/09/10 11:41:32;;;;;;;18.70;17.10;;;;;;;22.52;68.55;101247.44;6283801;28;20223;-50
2021/09/10 11:45:08;;;;;;;17.08;15.68;;;;;;;22.94;68.40;101251.41;6270847;28;20524;-47
2021/09/10 11:48:31;;;;;;;13.10;12.10;;;;;;;24.52;62.33;101248.69;6277248;28;20223;-51
2021/09/10 11:51:55;;;;;;;14.23;12.98;;;;;;;24.58;60.54;101247.44;6285146;28;20250;-48
2021/09/10 11:55:20;;;;;;;10.82;9.82;;;;;;;25.01;58.99;101252.75;6276626;28;20306;-47
2021/09/10 11:58:44;;;;;;;8.50;7.90;;;;;;;25.50;56.77;101247.84;6280505;28;20262;-51
2021/09/10 12:02:10;;;;;;;10.38;9.57;;;;;;;24.47;59.56;101256.91;6288945;28;20230;-49
2021/09/10 12:05:31;;;;;;;11.00;9.98;;;;;;;23.42;63.63;101247.94;6278499;28;20322;-53
2021/09/10 12:09:24;;;;;;;10.07;9.32;;;;;;;24.06;61.33;101246.97;6271572;28;20227;-48
2021/09/10 12:12:45;;;;;;;9.68;8.98;;;;;;;23.61;62.64;101243.31;6280793;28;20239;-47
2021/09/10 12:16:16;;;;;;;8.93;8.27;;;;;;;24.29;61.16;101242.94;6282452;28;20318;-51
2021/09/10 12:19:55;;;;;;;7.85;7.20;;;;;;;22.87;65.00;101241.19;6273005;28;20228;-50
2021/09/10 12:23:20;;;;;;;8.25;7.45;;;;;;;22.99;65.98;101243.19;6270996;28;20231;-48
2021/09/10 12:26:53;;;;;;;7.05;6.55;;;;;;;21.76;68.91;101249.50;6283002;28;20230;-48
2021/09/10 12:30:16;;;;;;;6.30;5.70;;;;;;;23.24;63.78;101237.41;6280956;28;20604;-50
2021/09/10 12:33:40;;;;;;;6.45;5.95;;;;;;;22.08;67.31;101234.66;6264685;28;22851;-51
2021/09/10 12:37:01;;;;;;;7.25;6.68;;;;;;;22.87;65.38;101228.78;6292225;28;20226;-51
2021/09/10 12:40:24;;;;;;;6.30;5.68;;;;;;;23.55;63.06;101223.28;6274340;28;21150;-50
2021/09/10 12:43:48;;;;;;;6.03;5.53;;;;;;;22.49;65.91;101217.53;6269201;28;20242;-48
2021/09/10 12:47:09;;;;;;;6.18;5.63;;;;;;;22.58;65.03;101223.22;6288412;28;20227;-46
2021/09/10 12:50:30;;;;;;;6.40;5.80;;;;;;;23.56;62.55;101217.00;6274384;28;20234;-49
2021/09/10 12:53:52;;;;;;;6.15;5.53;;;;;;;23.78;61.46;101221.94;6270498;28;20227;-50
2021/09/10 12:57:16;;;;;;;6.05;5.53;;;;;;;22.63;65.36;101228.31;6286604;28;20268;-50
2021/09/10 13:00:41;;;;;;;6.88;6.28;;;;;;;22.86;65.00;101221.78;6270948;28;20394;-52
2021/09/10 13:04:03;;;;;;;7.70;6.85;;;;;;;22.80;65.34;101222.94;6280078;28;20231;-46
2021/09/10 13:07:24;;;;;;;7.15;6.55;;;;;;;23.01;64.28;101225.38;6287733;28;20235;-49
2021/09/10 13:10:48;;;;;;;6.43;5.88;;;;;;;22.79;64.57;101221.22;6287473;28;20966;-49
2021/09/10 13:14:11;;;;;;;6.40;5.90;;;;;;;22.11;66.30;101233.63;6269288;28;20239;-47
2021/09/10 13:17:33;;;;;;;6.10;5.50;;;;;;;22.83;64.62;101226.38;6284050;28;20226;-49
2021/09/10 13:20:54;;;;;;;6.00;5.20;;;;;;;23.64;61.97;101227.19;6282448;28;20231;-51
2021/09/10 13:24:19;;;;;;;7.90;6.65;;;;;;;22.97;64.57;101224.69;6266411;28;20239;-47
2021/09/10 13:27:42;;;;;;;6.32;5.72;;;;;;;22.75;64.87;101232.09;6277986;28;20578;-47
2021/09/10 13:31:06;;;;;;;6.78;5.40;;;;;;;21.97;68.11;101229.88;6287982;28;20227;-46
2021/09/10 13:34:29;;;;;;;7.00;6.28;;;;;;;22.25;66.90;101222.34;6276608;28;20227;-45
2021/09/10 13:37:51;;;;;;;5.80;5.20;;;;;;;22.90;65.02;101217.16;6274169;28;20227;-50
2021/09/10 13:41:13;;;;;;;5.55;5.05;;;;;;;23.16;63.31;101210.41;6287755;28;20247;-48
2021/09/10 13:44:35;;;;;;;7.07;4.70;;;;;;;23.64;61.57;101203.25;6263201;28;20309;-49
2021/09/10 13:47:56;;;;;;;5.72;5.22;;;;;;;23.26;62.12;101202.78;6274920;28;20392;-46
2021/09/10 13:51:19;;;;;;;5.80;5.30;;;;;;;23.60;62.31;101207.06;6281618;28;20534;-47
2021/09/10 13:54:41;;;;;;;4.47;4.07;;;;;;;23.45;61.97;101208.78;6276329;28;20227;-53
2021/09/10 13:58:02;;;;;;;22.48;20.30;;;;;;;24.36;59.72;101203.47;6272369;28;20267;-51
2021/09/10 14:01:23;;;;;;;32.03;29.05;;;;;;;25.21;57.82;101206.22;6284418;28;20227;-48
2021/09/10 14:04:45;;;;;;;8.80;8.10;;;;;;;26.15;54.40;101210.72;6272329;28;20231;-51
2021/09/10 14:08:08;;;;;;;4.93;4.30;;;;;;;25.97;53.86;101203.00;6263662;28;20337;-48
2021/09/10 14:11:30;;;;;;;4.45;4.15;;;;;;;25.19;56.26;101211.63;6287477;28;20279;-47
2021/09/10 14:14:51;;;;;;;36.40;32.58;;;;;;;25.44;55.76;101204.75;6277487;28;20235;-48
2021/09/10 14:18:14;;;;;;;17.45;15.88;;;;;;;25.59;55.61;101205.53;6271642;28;20242;-47
2021/09/10 14:21:35;;;;;;;19.25;17.50;;;;;;;26.02;56.17;101203.56;6275766;28;20230;-50
2021/09/10 14:24:58;;;;;;;32.45;29.55;;;;;;;26.47;54.42;101195.13;6257827;28;20231;-47
2021/09/10 14:28:21;;;;;;;29.83;27.25;;;;;;;26.98;52.82;101195.06;6269858;28;20257;-51
2021/09/10 14:31:42;;;;;;;13.07;11.82;;;;;;;27.69;50.20;101184.56;6281987;28;20223;-46
2021/09/10 14:35:04;;;;;;;9.85;8.95;;;;;;;28.39;48.35;101183.63;6272522;28;20219;-48
2021/09/10 14:38:25;;;;;;;14.18;12.77;;;;;;;28.55;48.78;101180.63;6268998;28;20231;-49
2021/09/10 14:41:47;;;;;;;15.30;13.82;;;;;;;29.19;46.60;101176.44;6278209;28;20224;-45
2021/09/10 14:45:09;;;;;;;16.67;15.35;;;;;;;28.22;48.75;101184.09;6271030;28;20294;-51
2021/09/10 14:48:30;;;;;;;10.70;9.90;;;;;;;28.13;49.15;101187.50;6275277;28;20246;-47
2021/09/10 14:51:51;;;;;;;11.68;10.63;;;;;;;27.24;51.26;101185.19;6283112;28;20233;-48
2021/09/10 14:55:13;;;;;;;16.15;14.77;;;;;;;27.12;52.60;101188.72;6268222;28;20224;-53
2021/09/10 14:58:35;;;;;;;9.45;8.52;;;;;;;27.00;52.32;101195.81;6273000;28;20258;-49
2021/09/10 15:01:59;;;;;;;5.32;4.82;;;;;;;26.63;53.22;101193.13;6284003;28;20597;-47
2021/09/10 15:05:21;;;;;;;6.70;6.10;;;;;;;26.63;54.20;101190.44;6272883;28;20222;-45
2021/09/10 15:08:42;;;;;;;10.13;9.32;;;;;;;26.77;53.70;101176.09;6278668;28;20613;-48
2021/09/10 15:12:07;;;;;;;11.73;10.55;;;;;;;26.60;54.62;101189.81;6286991;28;20223;-46
2021/09/10 15:15:30;;;;;;;5.70;5.28;;;;;;;26.62;54.00;101203.91;6273856;28;20234;-46
2021/09/10 15:18:51;;;;;;;5.30;4.75;;;;;;;26.38;54.26;101201.97;6268777;28;20235;-47
2021/09/10 15:22:12;;;;;;;5.68;5.18;;;;;;;25.96;54.96;101201.31;6291588;28;20963;-47
2021/09/10 15:25:33;;;;;;;4.28;3.88;;;;;;;25.95;55.85;101194.25;6262444;28;20250;-47